Farista, Colorado
Current Conditions -  °F | °C
As of 9:51 PM on Monday 20 Oct 2014 (Local Time) from KVTP Reporting Station
Clear Clear  
Wind Chill: 40°   Ceiling: Unl
Heat Index: 43°   Visibility: 10mi
Dew Point: 30°   Wind: 5mph
Humidity: 61%   Direction: 180°S
Pressure: 30.38"   Gusts: NA
Location:  37.6936°N, 104.772°W
Report Text: KVTP 210351Z AUTO 18004KT 10SM CLR 06/M01 A3038 RMK AO2
Loading
Personal Weather Stations






























Interactive Weather Map
Tropical Storm Tracking
New forecast layout! Learn more

10-Day Weather Forecast

Advertisements
Track Severe Weather on mobile